Airfield :
LOGIN :

Register | Disclaimer

   EN    FR    IT 

 










Legend :    VFR   Marginal VFR   IFR   Intensive IFR   Very Intensive IFR
Visi :
Ceiling :
>= 8 km
>= 3000ft
5 to 8 km
1000 to 3000 ft
1500m to 5 km
500 to 1000 ft
800 to 1500m
200 to 500 ft
< 800m
< 200 ft
Symbols :   Thunderstorms  Fog  Heavy snow  Heavy precipitations  Wind > 20 kt
SIGMETs :     Misc.  Thunderstorms  Icing  Turbulence  Mountain Waves  Volcanic Ashes






- Airport Elevation : 146 ft
- IATA code : RKE


EKRK - Roskilde Tune

CURRENT METAR :
  • 231750Z AUTO 30007KT 9999 SCT005/// OVC029/// 14/13 Q1014

EXPIRED METARs :
  • 231720Z AUTO 27008KT 6000 BKN005/// BKN021/// OVC042/// 14/14 Q1014 RESHRA
  • 231650Z AUTO 27004KT 4400 +RA BR OVC004/// 14/14 Q1014
  • 231620Z AUTO 24002KT 2800 RA BR FEW003/// OVC013/// 14/14 Q1013
  • 231550Z AUTO 19002KT 3600 -RA BR OVC004/// 14/13 Q1013
  • 231520Z AUTO 18005KT 5000 -RA OVC004/// 14/13 Q1013
  • 231450Z AUTO 16006KT 4800 -RA OVC005/// 14/14 Q1013
  • 231420Z AUTO 15008KT 7000 -RA OVC003/// 14/13 Q1013
  • 231350Z AUTO 12010KT 090V150 8000 -RA BKN008/// 16/15 Q1012
  • 231320Z AUTO 10009KT 7000 -RA FEW020/// OVC049/// 17/15 Q1012

TAF TAF EKRK
Valid from the 23 at 18:00 until the 24 at 03:00 UTC


231710Z 2318/2403 27006KT 4000 RA BKN004
BECMG 2318/2319 9999 NSW BKN020
PROB40 2319/2403 BKN008



MET'MAP, your aeronautical weather chart ! - Copyright ORBIFLY December 2007 - Disclaimer

ORBIFLY MET'MAP TEAM :

Programming & Development : Alexandra Zaïnal
Original concept : Baudouin d'Aumeries
Technical & hardware support : Manuel Goepfert
Assistance : Marc-Olivier Méhu




SOURCES & CREDITS :

   NOAA